sensor_id;sensor_type;location;lat;lon;timestamp;P1;durP1;ratioP1;P2;durP2;ratioP2
75793;SDS011;64418;47.536;19.074;2024-02-26T00:01:19;22.33;;;13.50;;
75793;SDS011;64418;47.536;19.074;2024-02-26T00:03:45;26.75;;;13.30;;
75793;SDS011;64418;47.536;19.074;2024-02-26T00:06:11;23.03;;;13.27;;
75793;SDS011;64418;47.536;19.074;2024-02-26T00:08:38;24.67;;;13.85;;
75793;SDS011;64418;47.536;19.074;2024-02-26T00:11:03;23.67;;;12.27;;
75793;SDS011;64418;47.536;19.074;2024-02-26T00:13:29;21.83;;;11.65;;
75793;SDS011;64418;47.536;19.074;2024-02-26T00:15:55;21.57;;;11.40;;
75793;SDS011;64418;47.536;19.074;2024-02-26T00:18:20;21.33;;;11.90;;
75793;SDS011;64418;47.536;19.074;2024-02-26T00:20:47;24.20;;;12.60;;
75793;SDS011;64418;47.536;19.074;2024-02-26T00:23:14;21.00;;;11.65;;
75793;SDS011;64418;47.536;19.074;2024-02-26T00:25:41;22.08;;;12.25;;
75793;SDS011;64418;47.536;19.074;2024-02-26T00:28:07;22.90;;;11.70;;
75793;SDS011;64418;47.536;19.074;2024-02-26T00:30:33;20.08;;;11.27;;
75793;SDS011;64418;47.536;19.074;2024-02-26T00:32:59;22.33;;;11.33;;
75793;SDS011;64418;47.536;19.074;2024-02-26T00:35:25;22.00;;;12.05;;
75793;SDS011;64418;47.536;19.074;2024-02-26T00:37:50;20.17;;;11.18;;
75793;SDS011;64418;47.536;19.074;2024-02-26T00:40:16;20.13;;;11.20;;
75793;SDS011;64418;47.536;19.074;2024-02-26T00:42:44;23.60;;;11.82;;
75793;SDS011;64418;47.536;19.074;2024-02-26T00:45:09;23.05;;;12.05;;
75793;SDS011;64418;47.536;19.074;2024-02-26T00:47:35;22.20;;;11.33;;
75793;SDS011;64418;47.536;19.074;2024-02-26T00:50:01;21.60;;;11.40;;
75793;SDS011;64418;47.536;19.074;2024-02-26T00:52:27;20.50;;;10.67;;
75793;SDS011;64418;47.536;19.074;2024-02-26T00:54:52;20.52;;;11.07;;
75793;SDS011;64418;47.536;19.074;2024-02-26T00:57:18;19.42;;;10.57;;
75793;SDS011;64418;47.536;19.074;2024-02-26T00:59:46;21.03;;;11.10;;
75793;SDS011;64418;47.536;19.074;2024-02-26T01:02:12;21.17;;;10.98;;
75793;SDS011;64418;47.536;19.074;2024-02-26T01:04:38;20.83;;;11.25;;
75793;SDS011;64418;47.536;19.074;2024-02-26T01:07:04;23.08;;;11.88;;
75793;SDS011;64418;47.536;19.074;2024-02-26T01:09:30;20.98;;;11.00;;
75793;SDS011;64418;47.536;19.074;2024-02-26T01:11:55;23.07;;;11.50;;
75793;SDS011;64418;47.536;19.074;2024-02-26T01:14:21;19.60;;;10.30;;
75793;SDS011;64418;47.536;19.074;2024-02-26T01:16:48;20.67;;;10.60;;
75793;SDS011;64418;47.536;19.074;2024-02-26T01:19:14;18.55;;;10.07;;
75793;SDS011;64418;47.536;19.074;2024-02-26T01:21:40;18.12;;;9.55;;
75793;SDS011;64418;47.536;19.074;2024-02-26T01:24:06;20.90;;;10.40;;
75793;SDS011;64418;47.536;19.074;2024-02-26T01:26:32;19.00;;;10.63;;
75793;SDS011;64418;47.536;19.074;2024-02-26T01:28:57;22.02;;;10.02;;
75793;SDS011;64418;47.536;19.074;2024-02-26T01:31:23;18.57;;;9.77;;
75793;SDS011;64418;47.536;19.074;2024-02-26T01:33:50;20.55;;;10.65;;
75793;SDS011;64418;47.536;19.074;2024-02-26T01:36:16;19.25;;;10.25;;
75793;SDS011;64418;47.536;19.074;2024-02-26T01:38:42;19.17;;;9.93;;
75793;SDS011;64418;47.536;19.074;2024-02-26T01:41:08;20.40;;;10.65;;
75793;SDS011;64418;47.536;19.074;2024-02-26T01:43:33;23.53;;;11.67;;
75793;SDS011;64418;47.536;19.074;2024-02-26T01:45:59;22.30;;;11.85;;
75793;SDS011;64418;47.536;19.074;2024-02-26T01:48:25;25.83;;;13.07;;
75793;SDS011;64418;47.536;19.074;2024-02-26T01:50:53;24.33;;;12.13;;
75793;SDS011;64418;47.536;19.074;2024-02-26T01:53:18;22.13;;;11.93;;
75793;SDS011;64418;47.536;19.074;2024-02-26T01:55:45;22.20;;;11.90;;
75793;SDS011;64418;47.536;19.074;2024-02-26T01:58:11;24.58;;;12.30;;
75793;SDS011;64418;47.536;19.074;2024-02-26T02:00:38;25.80;;;12.02;;
75793;SDS011;64418;47.536;19.074;2024-02-26T02:03:04;26.02;;;13.57;;
75793;SDS011;64418;47.536;19.074;2024-02-26T02:05:31;27.13;;;13.10;;
75793;SDS011;64418;47.536;19.074;2024-02-26T02:07:59;21.92;;;12.70;;
75793;SDS011;64418;47.536;19.074;2024-02-26T02:10:26;23.48;;;12.60;;
75793;SDS011;64418;47.536;19.074;2024-02-26T02:12:52;24.55;;;13.15;;
75793;SDS011;64418;47.536;19.074;2024-02-26T02:15:18;24.93;;;13.03;;
75793;SDS011;64418;47.536;19.074;2024-02-26T02:17:43;24.65;;;12.82;;
75793;SDS011;64418;47.536;19.074;2024-02-26T02:20:14;24.08;;;13.20;;
75793;SDS011;64418;47.536;19.074;2024-02-26T02:22:43;24.93;;;12.67;;
75793;SDS011;64418;47.536;19.074;2024-02-26T02:25:09;24.67;;;12.77;;
75793;SDS011;64418;47.536;19.074;2024-02-26T02:27:34;25.58;;;12.90;;
75793;SDS011;64418;47.536;19.074;2024-02-26T02:30:01;27.93;;;13.37;;
75793;SDS011;64418;47.536;19.074;2024-02-26T02:32:27;28.05;;;13.48;;
75793;SDS011;64418;47.536;19.074;2024-02-26T02:34:54;26.27;;;14.23;;
75793;SDS011;64418;47.536;19.074;2024-02-26T02:37:21;22.45;;;13.00;;
75793;SDS011;64418;47.536;19.074;2024-02-26T02:39:48;26.33;;;13.23;;
75793;SDS011;64418;47.536;19.074;2024-02-26T02:42:14;25.10;;;12.65;;
75793;SDS011;64418;47.536;19.074;2024-02-26T02:44:40;23.87;;;13.25;;
75793;SDS011;64418;47.536;19.074;2024-02-26T02:47:06;25.97;;;12.73;;
75793;SDS011;64418;47.536;19.074;2024-02-26T02:49:32;25.33;;;12.52;;
75793;SDS011;64418;47.536;19.074;2024-02-26T02:51:58;25.08;;;12.93;;
75793;SDS011;64418;47.536;19.074;2024-02-26T02:54:24;24.70;;;12.73;;
75793;SDS011;64418;47.536;19.074;2024-02-26T02:56:52;27.00;;;13.53;;
75793;SDS011;64418;47.536;19.074;2024-02-26T02:59:18;26.23;;;13.43;;
75793;SDS011;64418;47.536;19.074;2024-02-26T03:01:43;25.98;;;13.35;;
75793;SDS011;64418;47.536;19.074;2024-02-26T03:04:09;26.07;;;13.13;;
75793;SDS011;64418;47.536;19.074;2024-02-26T03:06:35;23.70;;;13.15;;
75793;SDS011;64418;47.536;19.074;2024-02-26T03:09:00;23.67;;;12.67;;
75793;SDS011;64418;47.536;19.074;2024-02-26T03:11:27;24.75;;;13.70;;
75793;SDS011;64418;47.536;19.074;2024-02-26T03:13:55;24.48;;;12.85;;
75793;SDS011;64418;47.536;19.074;2024-02-26T03:16:21;24.23;;;13.18;;
75793;SDS011;64418;47.536;19.074;2024-02-26T03:18:47;24.70;;;12.87;;
75793;SDS011;64418;47.536;19.074;2024-02-26T03:21:14;22.80;;;12.32;;
75793;SDS011;64418;47.536;19.074;2024-02-26T03:23:40;25.55;;;12.65;;
75793;SDS011;64418;47.536;19.074;2024-02-26T03:26:07;24.05;;;12.43;;
75793;SDS011;64418;47.536;19.074;2024-02-26T03:28:33;22.40;;;12.73;;
75793;SDS011;64418;47.536;19.074;2024-02-26T03:31:01;27.23;;;12.73;;
75793;SDS011;64418;47.536;19.074;2024-02-26T03:33:27;25.75;;;13.15;;
75793;SDS011;64418;47.536;19.074;2024-02-26T03:35:53;22.70;;;12.20;;
75793;SDS011;64418;47.536;19.074;2024-02-26T03:38:19;22.70;;;11.80;;
75793;SDS011;64418;47.536;19.074;2024-02-26T03:40:45;23.90;;;12.50;;
75793;SDS011;64418;47.536;19.074;2024-02-26T03:43:11;23.75;;;11.57;;
75793;SDS011;64418;47.536;19.074;2024-02-26T03:45:36;21.83;;;12.00;;
75793;SDS011;64418;47.536;19.074;2024-02-26T03:48:04;24.52;;;13.25;;
75793;SDS011;64418;47.536;19.074;2024-02-26T03:50:31;23.35;;;12.45;;
75793;SDS011;64418;47.536;19.074;2024-02-26T03:52:56;20.43;;;11.90;;
75793;SDS011;64418;47.536;19.074;2024-02-26T03:55:22;20.60;;;11.52;;
75793;SDS011;64418;47.536;19.074;2024-02-26T03:57:48;20.70;;;12.17;;
75793;SDS011;64418;47.536;19.074;2024-02-26T04:00:14;26.00;;;13.00;;
75793;SDS011;64418;47.536;19.074;2024-02-26T04:02:40;21.10;;;12.15;;
75793;SDS011;64418;47.536;19.074;2024-02-26T04:05:08;23.47;;;13.30;;
75793;SDS011;64418;47.536;19.074;2024-02-26T04:07:35;24.65;;;12.70;;
75793;SDS011;64418;47.536;19.074;2024-02-26T04:10:01;24.55;;;12.80;;
75793;SDS011;64418;47.536;19.074;2024-02-26T04:12:26;21.57;;;12.33;;
75793;SDS011;64418;47.536;19.074;2024-02-26T04:14:53;23.60;;;12.73;;
75793;SDS011;64418;47.536;19.074;2024-02-26T04:17:18;22.62;;;12.20;;
75793;SDS011;64418;47.536;19.074;2024-02-26T04:19:44;21.60;;;11.12;;
75793;SDS011;64418;47.536;19.074;2024-02-26T04:22:11;26.37;;;12.13;;
75793;SDS011;64418;47.536;19.074;2024-02-26T04:24:37;20.85;;;11.25;;
75793;SDS011;64418;47.536;19.074;2024-02-26T04:27:03;21.12;;;10.90;;
75793;SDS011;64418;47.536;19.074;2024-02-26T04:29:29;17.37;;;9.97;;
75793;SDS011;64418;47.536;19.074;2024-02-26T04:31:59;20.62;;;11.00;;
75793;SDS011;64418;47.536;19.074;2024-02-26T04:34:29;18.80;;;10.82;;
75793;SDS011;64418;47.536;19.074;2024-02-26T04:36:55;19.37;;;10.38;;
75793;SDS011;64418;47.536;19.074;2024-02-26T04:39:22;19.95;;;10.65;;
75793;SDS011;64418;47.536;19.074;2024-02-26T04:41:48;17.53;;;10.03;;
75793;SDS011;64418;47.536;19.074;2024-02-26T04:44:14;22.30;;;10.73;;
75793;SDS011;64418;47.536;19.074;2024-02-26T04:46:40;19.98;;;11.10;;
75793;SDS011;64418;47.536;19.074;2024-02-26T04:49:06;22.17;;;10.73;;
75793;SDS011;64418;47.536;19.074;2024-02-26T04:51:32;18.93;;;10.47;;
75793;SDS011;64418;47.536;19.074;2024-02-26T04:53:58;17.67;;;9.95;;
75793;SDS011;64418;47.536;19.074;2024-02-26T04:56:26;19.75;;;11.07;;
75793;SDS011;64418;47.536;19.074;2024-02-26T04:58:52;17.80;;;10.30;;
75793;SDS011;64418;47.536;19.074;2024-02-26T05:01:18;18.10;;;10.27;;
75793;SDS011;64418;47.536;19.074;2024-02-26T05:03:45;18.92;;;10.18;;
75793;SDS011;64418;47.536;19.074;2024-02-26T05:06:11;20.20;;;10.60;;
75793;SDS011;64418;47.536;19.074;2024-02-26T05:08:37;17.33;;;9.45;;
75793;SDS011;64418;47.536;19.074;2024-02-26T05:11:03;19.07;;;10.47;;
75793;SDS011;64418;47.536;19.074;2024-02-26T05:13:32;19.37;;;10.73;;
75793;SDS011;64418;47.536;19.074;2024-02-26T05:15:59;20.75;;;10.57;;
75793;SDS011;64418;47.536;19.074;2024-02-26T05:18:29;23.08;;;11.25;;
75793;SDS011;64418;47.536;19.074;2024-02-26T05:20:55;20.77;;;10.03;;
75793;SDS011;64418;47.536;19.074;2024-02-26T05:23:21;19.73;;;10.38;;
75793;SDS011;64418;47.536;19.074;2024-02-26T05:25:48;20.10;;;10.90;;
75793;SDS011;64418;47.536;19.074;2024-02-26T05:28:14;24.17;;;11.68;;
75793;SDS011;64418;47.536;19.074;2024-02-26T05:30:41;20.33;;;10.77;;
75793;SDS011;64418;47.536;19.074;2024-02-26T05:33:07;19.55;;;10.25;;
75793;SDS011;64418;47.536;19.074;2024-02-26T05:35:32;23.40;;;11.13;;
75793;SDS011;64418;47.536;19.074;2024-02-26T05:37:58;23.60;;;11.43;;
75793;SDS011;64418;47.536;19.074;2024-02-26T05:40:24;22.33;;;11.23;;
75793;SDS011;64418;47.536;19.074;2024-02-26T05:42:50;19.87;;;10.63;;
75793;SDS011;64418;47.536;19.074;2024-02-26T05:45:16;21.50;;;12.47;;
75793;SDS011;64418;47.536;19.074;2024-02-26T05:47:47;22.50;;;11.93;;
75793;SDS011;64418;47.536;19.074;2024-02-26T05:50:14;25.48;;;11.73;;
75793;SDS011;64418;47.536;19.074;2024-02-26T05:52:40;20.40;;;10.35;;
75793;SDS011;64418;47.536;19.074;2024-02-26T05:55:08;19.87;;;10.50;;
75793;SDS011;64418;47.536;19.074;2024-02-26T05:57:34;19.47;;;10.47;;
75793;SDS011;64418;47.536;19.074;2024-02-26T06:00:01;21.92;;;10.82;;
75793;SDS011;64418;47.536;19.074;2024-02-26T06:02:28;21.20;;;9.95;;
75793;SDS011;64418;47.536;19.074;2024-02-26T06:04:55;20.37;;;10.38;;
75793;SDS011;64418;47.536;19.074;2024-02-26T06:07:21;23.17;;;10.48;;
75793;SDS011;64418;47.536;19.074;2024-02-26T06:09:47;22.50;;;11.33;;
75793;SDS011;64418;47.536;19.074;2024-02-26T06:12:13;24.10;;;12.15;;
75793;SDS011;64418;47.536;19.074;2024-02-26T06:14:41;20.85;;;10.80;;
75793;SDS011;64418;47.536;19.074;2024-02-26T06:17:07;19.95;;;10.38;;
75793;SDS011;64418;47.536;19.074;2024-02-26T06:19:33;18.77;;;9.67;;
75793;SDS011;64418;47.536;19.074;2024-02-26T06:22:01;19.73;;;10.20;;
75793;SDS011;64418;47.536;19.074;2024-02-26T06:24:27;20.83;;;10.35;;
75793;SDS011;64418;47.536;19.074;2024-02-26T06:26:53;18.60;;;9.65;;
75793;SDS011;64418;47.536;19.074;2024-02-26T06:29:19;18.93;;;9.90;;
75793;SDS011;64418;47.536;19.074;2024-02-26T06:31:44;18.80;;;9.80;;
75793;SDS011;64418;47.536;19.074;2024-02-26T06:34:10;20.77;;;10.03;;
75793;SDS011;64418;47.536;19.074;2024-02-26T06:36:36;19.92;;;10.05;;
75793;SDS011;64418;47.536;19.074;2024-02-26T06:39:03;20.90;;;9.90;;
75793;SDS011;64418;47.536;19.074;2024-02-26T06:41:29;19.98;;;9.80;;
75793;SDS011;64418;47.536;19.074;2024-02-26T06:43:55;18.50;;;9.52;;
75793;SDS011;64418;47.536;19.074;2024-02-26T06:46:21;23.13;;;10.50;;
75793;SDS011;64418;47.536;19.074;2024-02-26T06:48:48;20.20;;;11.43;;
75793;SDS011;64418;47.536;19.074;2024-02-26T06:51:16;18.40;;;10.15;;
75793;SDS011;64418;47.536;19.074;2024-02-26T06:53:43;26.20;;;11.05;;
75793;SDS011;64418;47.536;19.074;2024-02-26T06:56:10;20.43;;;10.63;;
75793;SDS011;64418;47.536;19.074;2024-02-26T06:58:36;21.42;;;10.43;;
75793;SDS011;64418;47.536;19.074;2024-02-26T07:01:02;23.23;;;11.23;;
75793;SDS011;64418;47.536;19.074;2024-02-26T07:03:29;22.85;;;10.63;;
75793;SDS011;64418;47.536;19.074;2024-02-26T07:06:02;20.23;;;10.50;;
75793;SDS011;64418;47.536;19.074;2024-02-26T07:08:28;20.55;;;10.43;;
75793;SDS011;64418;47.536;19.074;2024-02-26T07:10:55;22.25;;;11.00;;
75793;SDS011;64418;47.536;19.074;2024-02-26T07:13:23;20.67;;;10.80;;
75793;SDS011;64418;47.536;19.074;2024-02-26T07:15:50;21.58;;;10.27;;
75793;SDS011;64418;47.536;19.074;2024-02-26T07:18:26;18.80;;;10.37;;
75793;SDS011;64418;47.536;19.074;2024-02-26T07:20:53;21.85;;;10.90;;
75793;SDS011;64418;47.536;19.074;2024-02-26T07:23:19;20.42;;;11.12;;
75793;SDS011;64418;47.536;19.074;2024-02-26T07:25:45;18.60;;;10.15;;
75793;SDS011;64418;47.536;19.074;2024-02-26T07:28:12;18.15;;;10.63;;
75793;SDS011;64418;47.536;19.074;2024-02-26T07:30:39;19.03;;;11.07;;
75793;SDS011;64418;47.536;19.074;2024-02-26T07:33:05;20.42;;;10.50;;
75793;SDS011;64418;47.536;19.074;2024-02-26T07:35:31;19.40;;;11.20;;
75793;SDS011;64418;47.536;19.074;2024-02-26T07:37:59;20.95;;;11.32;;
75793;SDS011;64418;47.536;19.074;2024-02-26T07:40:27;20.20;;;11.85;;
75793;SDS011;64418;47.536;19.074;2024-02-26T07:42:57;19.37;;;11.37;;
75793;SDS011;64418;47.536;19.074;2024-02-26T07:45:23;19.10;;;10.82;;
75793;SDS011;64418;47.536;19.074;2024-02-26T07:47:52;18.37;;;11.00;;
75793;SDS011;64418;47.536;19.074;2024-02-26T07:50:18;20.50;;;12.65;;
75793;SDS011;64418;47.536;19.074;2024-02-26T07:52:44;20.62;;;12.00;;
75793;SDS011;64418;47.536;19.074;2024-02-26T07:55:10;21.97;;;12.03;;
75793;SDS011;64418;47.536;19.074;2024-02-26T07:57:36;23.35;;;13.25;;
75793;SDS011;64418;47.536;19.074;2024-02-26T08:00:02;22.73;;;14.00;;
75793;SDS011;64418;47.536;19.074;2024-02-26T08:02:29;22.33;;;14.20;;
75793;SDS011;64418;47.536;19.074;2024-02-26T08:04:57;21.73;;;13.20;;
75793;SDS011;64418;47.536;19.074;2024-02-26T08:07:22;22.95;;;13.90;;
75793;SDS011;64418;47.536;19.074;2024-02-26T08:09:48;23.25;;;13.98;;
75793;SDS011;64418;47.536;19.074;2024-02-26T08:12:14;23.27;;;14.23;;
75793;SDS011;64418;47.536;19.074;2024-02-26T08:14:40;24.40;;;14.97;;
75793;SDS011;64418;47.536;19.074;2024-02-26T08:17:06;23.95;;;14.23;;
75793;SDS011;64418;47.536;19.074;2024-02-26T08:19:32;24.98;;;13.48;;
75793;SDS011;64418;47.536;19.074;2024-02-26T08:22:00;24.40;;;13.98;;
75793;SDS011;64418;47.536;19.074;2024-02-26T08:24:26;21.73;;;14.57;;
75793;SDS011;64418;47.536;19.074;2024-02-26T08:26:52;22.00;;;13.48;;
75793;SDS011;64418;47.536;19.074;2024-02-26T08:29:18;22.80;;;13.98;;
75793;SDS011;64418;47.536;19.074;2024-02-26T08:31:43;23.37;;;14.87;;
75793;SDS011;64418;47.536;19.074;2024-02-26T08:34:09;23.83;;;13.70;;
75793;SDS011;64418;47.536;19.074;2024-02-26T08:36:35;23.83;;;14.23;;
75793;SDS011;64418;47.536;19.074;2024-02-26T08:39:02;24.67;;;15.38;;
75793;SDS011;64418;47.536;19.074;2024-02-26T08:41:28;24.23;;;14.93;;
75793;SDS011;64418;47.536;19.074;2024-02-26T08:43:55;27.40;;;15.55;;
75793;SDS011;64418;47.536;19.074;2024-02-26T08:46:22;26.00;;;14.93;;
75793;SDS011;64418;47.536;19.074;2024-02-26T08:48:48;23.70;;;14.35;;
75793;SDS011;64418;47.536;19.074;2024-02-26T08:51:14;24.73;;;15.25;;
75793;SDS011;64418;47.536;19.074;2024-02-26T08:53:40;26.92;;;15.63;;
75793;SDS011;64418;47.536;19.074;2024-02-26T08:56:07;27.47;;;16.23;;
75793;SDS011;64418;47.536;19.074;2024-02-26T08:58:33;23.83;;;14.93;;
75793;SDS011;64418;47.536;19.074;2024-02-26T09:00:59;26.55;;;15.65;;
75793;SDS011;64418;47.536;19.074;2024-02-26T09:03:26;24.73;;;15.52;;
75793;SDS011;64418;47.536;19.074;2024-02-26T09:05:53;24.85;;;15.13;;
75793;SDS011;64418;47.536;19.074;2024-02-26T09:08:19;27.37;;;15.93;;
75793;SDS011;64418;47.536;19.074;2024-02-26T09:10:44;27.55;;;15.95;;
75793;SDS011;64418;47.536;19.074;2024-02-26T09:13:12;29.42;;;16.08;;
75793;SDS011;64418;47.536;19.074;2024-02-26T09:15:39;29.67;;;16.75;;
75793;SDS011;64418;47.536;19.074;2024-02-26T09:18:05;25.20;;;16.07;;
75793;SDS011;64418;47.536;19.074;2024-02-26T09:20:30;23.55;;;15.50;;
75793;SDS011;64418;47.536;19.074;2024-02-26T09:22:57;25.17;;;15.50;;
75793;SDS011;64418;47.536;19.074;2024-02-26T09:25:23;27.67;;;15.87;;
75793;SDS011;64418;47.536;19.074;2024-02-26T09:27:50;26.37;;;15.57;;
75793;SDS011;64418;47.536;19.074;2024-02-26T09:30:17;25.92;;;15.85;;
75793;SDS011;64418;47.536;19.074;2024-02-26T09:32:45;24.45;;;15.38;;
75793;SDS011;64418;47.536;19.074;2024-02-26T09:35:12;22.52;;;14.87;;
75793;SDS011;64418;47.536;19.074;2024-02-26T09:37:38;22.30;;;14.33;;
75793;SDS011;64418;47.536;19.074;2024-02-26T09:40:07;23.60;;;15.13;;
75793;SDS011;64418;47.536;19.074;2024-02-26T09:42:33;26.35;;;15.98;;
75793;SDS011;64418;47.536;19.074;2024-02-26T09:45:00;22.50;;;15.05;;
75793;SDS011;64418;47.536;19.074;2024-02-26T09:47:32;21.27;;;15.00;;
75793;SDS011;64418;47.536;19.074;2024-02-26T09:49:58;21.67;;;14.63;;
75793;SDS011;64418;47.536;19.074;2024-02-26T09:52:26;21.90;;;14.73;;
75793;SDS011;64418;47.536;19.074;2024-02-26T09:54:53;25.60;;;16.12;;
75793;SDS011;64418;47.536;19.074;2024-02-26T09:57:19;23.85;;;16.08;;
75793;SDS011;64418;47.536;19.074;2024-02-26T09:59:46;24.23;;;15.35;;
75793;SDS011;64418;47.536;19.074;2024-02-26T10:02:15;22.97;;;14.67;;
75793;SDS011;64418;47.536;19.074;2024-02-26T10:04:45;27.23;;;16.75;;
75793;SDS011;64418;47.536;19.074;2024-02-26T10:07:12;25.27;;;16.25;;
75793;SDS011;64418;47.536;19.074;2024-02-26T10:09:39;25.10;;;15.75;;
75793;SDS011;64418;47.536;19.074;2024-02-26T10:12:05;28.48;;;15.98;;
75793;SDS011;64418;47.536;19.074;2024-02-26T10:14:35;24.77;;;15.13;;
75793;SDS011;64418;47.536;19.074;2024-02-26T10:17:01;21.95;;;14.27;;
75793;SDS011;64418;47.536;19.074;2024-02-26T10:19:28;21.35;;;14.68;;
75793;SDS011;64418;47.536;19.074;2024-02-26T10:21:58;23.35;;;14.43;;
75793;SDS011;64418;47.536;19.074;2024-02-26T10:24:25;20.67;;;14.60;;
75793;SDS011;64418;47.536;19.074;2024-02-26T10:26:51;25.40;;;14.80;;
75793;SDS011;64418;47.536;19.074;2024-02-26T10:29:18;25.17;;;15.93;;
75793;SDS011;64418;47.536;19.074;2024-02-26T10:31:44;23.30;;;15.00;;
75793;SDS011;64418;47.536;19.074;2024-02-26T10:34:10;21.45;;;13.90;;
75793;SDS011;64418;47.536;19.074;2024-02-26T10:36:37;22.73;;;13.52;;
75793;SDS011;64418;47.536;19.074;2024-02-26T10:39:05;17.80;;;12.00;;
75793;SDS011;64418;47.536;19.074;2024-02-26T10:41:31;18.92;;;12.98;;
75793;SDS011;64418;47.536;19.074;2024-02-26T10:43:59;18.60;;;12.35;;
75793;SDS011;64418;47.536;19.074;2024-02-26T10:46:25;19.05;;;11.60;;
75793;SDS011;64418;47.536;19.074;2024-02-26T10:48:52;15.40;;;10.98;;
75793;SDS011;64418;47.536;19.074;2024-02-26T10:51:18;15.00;;;10.37;;
75793;SDS011;64418;47.536;19.074;2024-02-26T10:53:51;15.15;;;10.27;;
75793;SDS011;64418;47.536;19.074;2024-02-26T10:56:22;13.35;;;9.70;;
75793;SDS011;64418;47.536;19.074;2024-02-26T10:58:51;14.40;;;9.75;;
75793;SDS011;64418;47.536;19.074;2024-02-26T11:01:17;13.35;;;9.95;;
75793;SDS011;64418;47.536;19.074;2024-02-26T11:03:44;13.70;;;9.50;;
75793;SDS011;64418;47.536;19.074;2024-02-26T11:06:10;15.65;;;10.43;;
75793;SDS011;64418;47.536;19.074;2024-02-26T11:11:11;15.27;;;8.85;;
75793;SDS011;64418;47.536;19.074;2024-02-26T11:13:38;11.95;;;8.77;;
75793;SDS011;64418;47.536;19.074;2024-02-26T11:16:05;11.77;;;8.60;;
75793;SDS011;64418;47.536;19.074;2024-02-26T11:18:32;14.68;;;9.50;;
75793;SDS011;64418;47.536;19.074;2024-02-26T11:20:59;13.32;;;8.77;;
75793;SDS011;64418;47.536;19.074;2024-02-26T11:23:27;12.18;;;8.57;;
75793;SDS011;64418;47.536;19.074;2024-02-26T11:25:53;11.02;;;7.97;;
75793;SDS011;64418;47.536;19.074;2024-02-26T11:28:24;15.07;;;8.30;;
75793;SDS011;64418;47.536;19.074;2024-02-26T11:30:54;10.68;;;8.02;;
75793;SDS011;64418;47.536;19.074;2024-02-26T11:33:20;14.70;;;9.02;;
75793;SDS011;64418;47.536;19.074;2024-02-26T11:35:47;13.27;;;8.80;;
75793;SDS011;64418;47.536;19.074;2024-02-26T11:38:17;10.65;;;8.23;;
75793;SDS011;64418;47.536;19.074;2024-02-26T11:40:45;11.17;;;8.03;;
75793;SDS011;64418;47.536;19.074;2024-02-26T11:43:12;10.50;;;8.18;;
75793;SDS011;64418;47.536;19.074;2024-02-26T11:45:50;13.25;;;8.35;;
75793;SDS011;64418;47.536;19.074;2024-02-26T11:48:20;13.50;;;8.43;;
75793;SDS011;64418;47.536;19.074;2024-02-26T11:50:47;8.75;;;6.45;;
75793;SDS011;64418;47.536;19.074;2024-02-26T11:53:21;8.83;;;6.47;;
75793;SDS011;64418;47.536;19.074;2024-02-26T11:55:49;8.68;;;6.80;;
75793;SDS011;64418;47.536;19.074;2024-02-26T11:58:39;9.90;;;6.82;;
75793;SDS011;64418;47.536;19.074;2024-02-26T12:01:05;9.85;;;7.30;;
75793;SDS011;64418;47.536;19.074;2024-02-26T12:04:00;9.63;;;7.68;;
75793;SDS011;64418;47.536;19.074;2024-02-26T12:06:27;10.20;;;6.73;;
75793;SDS011;64418;47.536;19.074;2024-02-26T12:08:53;10.52;;;7.25;;
75793;SDS011;64418;47.536;19.074;2024-02-26T12:11:20;9.55;;;6.82;;
75793;SDS011;64418;47.536;19.074;2024-02-26T12:13:47;8.73;;;6.47;;
75793;SDS011;64418;47.536;19.074;2024-02-26T12:16:13;9.50;;;6.30;;
75793;SDS011;64418;47.536;19.074;2024-02-26T12:19:09;13.30;;;6.80;;
75793;SDS011;64418;47.536;19.074;2024-02-26T12:21:36;8.00;;;6.32;;
75793;SDS011;64418;47.536;19.074;2024-02-26T12:24:09;11.10;;;6.22;;
75793;SDS011;64418;47.536;19.074;2024-02-26T12:26:37;9.35;;;6.12;;
75793;SDS011;64418;47.536;19.074;2024-02-26T12:29:05;8.20;;;6.12;;
75793;SDS011;64418;47.536;19.074;2024-02-26T12:31:32;7.77;;;5.67;;
75793;SDS011;64418;47.536;19.074;2024-02-26T12:34:00;8.10;;;5.80;;
75793;SDS011;64418;47.536;19.074;2024-02-26T12:36:34;8.43;;;5.50;;
75793;SDS011;64418;47.536;19.074;2024-02-26T12:39:02;7.30;;;5.43;;
75793;SDS011;64418;47.536;19.074;2024-02-26T12:41:31;7.20;;;4.95;;
75793;SDS011;64418;47.536;19.074;2024-02-26T12:43:57;6.93;;;5.27;;
75793;SDS011;64418;47.536;19.074;2024-02-26T12:46:24;8.98;;;5.60;;
75793;SDS011;64418;47.536;19.074;2024-02-26T12:48:51;7.22;;;5.20;;
75793;SDS011;64418;47.536;19.074;2024-02-26T12:51:21;8.77;;;5.53;;
75793;SDS011;64418;47.536;19.074;2024-02-26T12:53:49;6.97;;;4.62;;
75793;SDS011;64418;47.536;19.074;2024-02-26T12:56:16;8.07;;;5.10;;
75793;SDS011;64418;47.536;19.074;2024-02-26T12:58:43;10.75;;;4.47;;
75793;SDS011;64418;47.536;19.074;2024-02-26T13:01:15;6.28;;;4.70;;
75793;SDS011;64418;47.536;19.074;2024-02-26T13:03:45;9.98;;;5.40;;
75793;SDS011;64418;47.536;19.074;2024-02-26T13:06:13;10.73;;;4.95;;
75793;SDS011;64418;47.536;19.074;2024-02-26T13:08:46;5.93;;;4.20;;
75793;SDS011;64418;47.536;19.074;2024-02-26T13:11:17;6.12;;;4.35;;
75793;SDS011;64418;47.536;19.074;2024-02-26T13:13:48;5.93;;;3.90;;
75793;SDS011;64418;47.536;19.074;2024-02-26T13:16:15;5.07;;;3.55;;
75793;SDS011;64418;47.536;19.074;2024-02-26T13:18:43;6.05;;;3.62;;
75793;SDS011;64418;47.536;19.074;2024-02-26T13:21:10;5.13;;;3.40;;
75793;SDS011;64418;47.536;19.074;2024-02-26T13:23:38;4.45;;;3.65;;
75793;SDS011;64418;47.536;19.074;2024-02-26T13:26:07;5.70;;;3.75;;
75793;SDS011;64418;47.536;19.074;2024-02-26T13:28:36;8.50;;;3.65;;
75793;SDS011;64418;47.536;19.074;2024-02-26T13:31:03;7.20;;;4.00;;
75793;SDS011;64418;47.536;19.074;2024-02-26T13:33:31;6.43;;;3.80;;
75793;SDS011;64418;47.536;19.074;2024-02-26T13:35:58;6.50;;;3.90;;
75793;SDS011;64418;47.536;19.074;2024-02-26T13:38:26;6.57;;;4.00;;
75793;SDS011;64418;47.536;19.074;2024-02-26T13:40:54;4.50;;;3.50;;
75793;SDS011;64418;47.536;19.074;2024-02-26T13:43:21;6.47;;;3.87;;
75793;SDS011;64418;47.536;19.074;2024-02-26T13:45:49;6.50;;;4.47;;
75793;SDS011;64418;47.536;19.074;2024-02-26T13:48:16;6.22;;;4.10;;
75793;SDS011;64418;47.536;19.074;2024-02-26T13:50:42;6.72;;;3.80;;
75793;SDS011;64418;47.536;19.074;2024-02-26T13:53:11;5.28;;;3.12;;
75793;SDS011;64418;47.536;19.074;2024-02-26T13:55:39;5.18;;;2.97;;
75793;SDS011;64418;47.536;19.074;2024-02-26T13:58:05;3.90;;;2.70;;
75793;SDS011;64418;47.536;19.074;2024-02-26T14:00:31;4.07;;;3.10;;
75793;SDS011;64418;47.536;19.074;2024-02-26T14:02:59;4.35;;;3.10;;
75793;SDS011;64418;47.536;19.074;2024-02-26T14:05:26;3.83;;;3.20;;
75793;SDS011;64418;47.536;19.074;2024-02-26T14:07:52;5.95;;;3.62;;
75793;SDS011;64418;47.536;19.074;2024-02-26T14:10:19;5.20;;;3.47;;
75793;SDS011;64418;47.536;19.074;2024-02-26T14:12:45;4.68;;;3.30;;
75793;SDS011;64418;47.536;19.074;2024-02-26T14:15:11;4.50;;;3.25;;